Terminal Aerodrome Forecast
Issued by NWS

Current Version | Previous Version | Graphics & Text | Print | Product List | Glossary On
Versions: 1 2 3 4 5 6 7 8 9 10 11 12 13 14 15 16 17 18 19 20 21 22 23
000
FTUS41 KILN 030536
TAFLUK
TAF
KLUK 030536Z 0306/0406 00000KT 4SM BR FEW003 SCT250
     FM030800 00000KT 1SM BR SKC
      TEMPO 0308/0312 1/2SM FG BKN003
     FM031400 VRB03KT P6SM SCT040
     FM031900 31005KT P6SM VCTS BKN035CB
     FM040100 VRB03KT P6SM SCT250=

USA.gov is the U.S. government's official web portal to all federal, state and local government web resources and services.